Time;durP1;ratioP1;P1;durP2;ratioP2;P2;SDS_P1;SDS_P2;PMS_P1;PMS_P2;Temp;Humidity;BMP_temperature;BMP_pressure;BME280_temperature;BME280_humidity;BME280_pressure;Samples;Min_cycle;Max_cycle;Signal;HPM_P1;HPM_P2
2023/04/14 00:01:23;;;;;;;5.30;3.20;;;5.70;99.90;;;;;;5071952;28;20515;-72
2023/04/14 00:03:50;;;;;;;6.73;2.33;;;5.70;99.90;;;;;;5069987;28;20214;-73
2023/04/14 00:06:16;;;;;;;4.40;2.60;;;5.70;99.90;;;;;;5069925;28;20179;-72
2023/04/14 00:08:42;;;;;;;3.80;2.37;;;5.70;99.90;;;;;;5071214;28;20503;-73
2023/04/14 00:11:07;;;;;;;4.60;3.00;;;5.70;99.90;;;;;;5071336;28;20236;-73
2023/04/14 00:13:33;;;;;;;4.10;2.70;;;5.80;99.90;;;;;;5069613;28;20280;-72
2023/04/14 00:15:58;;;;;;;8.00;2.87;;;5.80;99.90;;;;;;5071079;28;20607;-72
2023/04/14 00:18:24;;;;;;;8.80;2.40;;;5.80;99.90;;;;;;5070854;28;20194;-72
2023/04/14 00:20:50;;;;;;;7.70;2.83;;;5.80;99.90;;;;;;5069723;28;20187;-73
2023/04/14 00:23:15;;;;;;;3.80;2.13;;;5.80;99.90;;;;;;5069441;28;20264;-72
2023/04/14 00:25:41;;;;;;;7.50;2.30;;;5.90;99.90;;;;;;5069378;28;20691;-73
2023/04/14 00:28:06;;;;;;;6.63;2.57;;;5.90;99.90;;;;;;5069450;28;20224;-73
2023/04/14 00:30:32;;;;;;;3.70;2.07;;;5.90;99.90;;;;;;5070736;28;20202;-73
2023/04/14 00:32:57;;;;;;;4.53;2.33;;;6.00;99.90;;;;;;5070617;28;20199;-72
2023/04/14 00:35:23;;;;;;;6.83;2.90;;;6.10;99.90;;;;;;5070927;28;20627;-73
2023/04/14 00:37:50;;;;;;;3.03;2.50;;;6.00;99.90;;;;;;5070998;28;20186;-74
2023/04/14 00:40:16;;;;;;;5.53;2.10;;;5.90;99.90;;;;;;5070725;28;20688;-72
2023/04/14 00:42:46;;;;;;;3.40;1.77;;;5.90;99.90;;;;;;5085837;28;20437;-73
2023/04/14 00:45:13;;;;;;;3.17;1.97;;;5.90;99.90;;;;;;5070492;28;20472;-72
2023/04/14 00:47:40;;;;;;;7.00;2.20;;;6.00;99.90;;;;;;5069166;28;20932;-73
2023/04/14 00:50:10;;;;;;;5.60;1.73;;;5.90;99.90;;;;;;5070441;28;20413;-73
2023/04/14 00:52:37;;;;;;;8.73;2.20;;;5.80;99.90;;;;;;5070105;28;20442;-72
2023/04/14 00:55:04;;;;;;;9.47;2.70;;;5.80;99.90;;;;;;5070215;28;20440;-73
2023/04/14 00:57:30;;;;;;;3.53;2.27;;;5.80;99.90;;;;;;5069516;28;20426;-72
2023/04/14 00:59:58;;;;;;;8.33;2.03;;;5.80;99.90;;;;;;5068561;28;20520;-73
2023/04/14 01:02:24;;;;;;;5.83;1.83;;;5.80;99.90;;;;;;5070778;28;20492;-73
2023/04/14 01:04:50;;;;;;;7.73;2.40;;;5.80;99.90;;;;;;5070221;28;20518;-72
2023/04/14 01:07:18;;;;;;;4.23;2.30;;;5.80;99.90;;;;;;5069914;28;20451;-73
2023/04/14 01:09:44;;;;;;;3.83;2.27;;;5.80;99.90;;;;;;5068454;28;20436;-73
2023/04/14 01:12:30;;;;;;;4.57;2.53;;;5.60;99.90;;;;;;5069060;28;20441;-73
2023/04/14 01:15:14;;;;;;;5.77;2.23;;;5.70;99.90;;;;;;5069830;28;20424;-73
2023/04/14 01:17:50;;;;;;;3.87;2.47;;;5.70;99.90;;;;;;5069402;28;20482;-72
2023/04/14 01:20:41;;;;;;;3.57;2.37;;;5.70;99.90;;;;;;5069247;28;20466;-71
2023/04/14 01:23:11;;;;;;;10.63;2.60;;;5.70;99.90;;;;;;5069208;28;20528;-73
2023/04/14 01:25:55;;;;;;;5.90;2.70;;;5.60;99.90;;;;;;5069166;28;20936;-73
2023/04/14 01:28:32;;;;;;;5.93;2.03;;;5.60;99.90;;;;;;5069564;28;20482;-72
2023/04/14 01:31:22;;;;;;;8.40;2.47;;;5.60;99.90;;;;;;5069324;28;20555;-72
2023/04/14 01:34:05;;;;;;;9.03;2.27;;;5.60;99.90;;;;;;5069019;28;20444;-74
2023/04/14 01:36:41;;;;;;;4.60;2.77;;;5.70;99.90;;;;;;5072011;28;20449;-73
2023/04/14 01:39:11;;;;;;;6.37;2.57;;;5.70;99.90;;;;;;5071565;28;20443;-74
2023/04/14 01:41:42;;;;;;;9.03;3.10;;;5.70;99.90;;;;;;5069701;28;20441;-73
2023/04/14 01:44:09;;;;;;;5.80;2.07;;;5.70;99.90;;;;;;5084418;28;20471;-73
2023/04/14 01:46:35;;;;;;;3.10;2.07;;;5.60;99.90;;;;;;5069015;28;20478;-73
2023/04/14 01:49:02;;;;;;;5.57;2.10;;;5.70;99.90;;;;;;5067593;28;20484;-73
2023/04/14 01:51:30;;;;;;;4.83;2.17;;;5.70;99.90;;;;;;5068738;28;20420;-73
2023/04/14 01:53:57;;;;;;;7.67;2.10;;;5.70;99.90;;;;;;5068643;28;20490;-73
2023/04/14 01:56:24;;;;;;;4.70;1.87;;;5.70;99.90;;;;;;5069205;28;20437;-73
2023/04/14 01:58:51;;;;;;;3.77;2.07;;;5.70;99.90;;;;;;5068650;28;20448;-73
2023/04/14 02:01:18;;;;;;;3.90;1.83;;;5.70;99.90;;;;;;5067141;28;20414;-73
2023/04/14 02:03:45;;;;;;;7.93;2.23;;;5.70;99.90;;;;;;5068703;28;20461;-73
2023/04/14 02:06:12;;;;;;;11.40;2.83;;;5.70;99.90;;;;;;5067357;28;20958;-73
2023/04/14 02:08:40;;;;;;;5.40;2.10;;;5.60;99.90;;;;;;5068563;28;20414;-72
2023/04/14 02:11:07;;;;;;;7.23;2.17;;;5.60;99.90;;;;;;5068676;28;20948;-73
2023/04/14 02:13:34;;;;;;;9.57;2.13;;;5.60;99.90;;;;;;5068813;28;20940;-73
2023/04/14 02:16:01;;;;;;;6.17;1.93;;;5.60;99.90;;;;;;5068679;28;20425;-73
2023/04/14 02:18:28;;;;;;;4.73;2.20;;;5.70;99.90;;;;;;5083837;28;20425;-73
2023/04/14 02:20:56;;;;;;;6.10;2.33;;;5.70;99.90;;;;;;5067300;28;20429;-72
2023/04/14 02:23:22;;;;;;;6.90;2.30;;;5.60;99.90;;;;;;5068457;28;20883;-73
2023/04/14 02:26:03;;;;;;;6.53;2.17;;;5.50;99.90;;;;;;5068637;28;20580;-73
2023/04/14 02:28:33;;;;;;;6.90;1.93;;;5.40;99.90;;;;;;5067239;28;20179;-73
2023/04/14 02:31:04;;;;;;;6.90;2.20;;;5.40;99.90;;;;;;5068571;28;20420;-73
2023/04/14 02:33:35;;;;;;;8.13;2.13;;;5.40;99.90;;;;;;5067168;28;20523;-73
2023/04/14 02:36:14;;;;;;;9.87;2.00;;;5.30;99.90;;;;;;5068484;28;20425;-73
2023/04/14 02:38:51;;;;;;;12.03;2.07;;;5.30;99.90;;;;;;5068494;28;20421;-73
2023/04/14 02:41:23;;;;;;;5.60;1.70;;;5.20;99.90;;;;;;5068563;28;20433;-71
2023/04/14 02:44:20;;;;;;;5.40;1.90;;;5.20;99.90;;;;;;5068276;28;20798;-73
2023/04/14 02:46:54;;;;;;;8.03;2.10;;;5.20;99.90;;;;;;5067908;28;20441;-73
2023/04/14 02:49:22;;;;;;;6.93;1.90;;;5.20;99.90;;;;;;5068244;28;20428;-73
2023/04/14 02:51:49;;;;;;;10.30;2.00;;;5.20;99.90;;;;;;5068506;28;21121;-72
2023/04/14 02:54:17;;;;;;;6.43;2.13;;;5.20;99.90;;;;;;5083527;28;20457;-72
2023/04/14 02:56:43;;;;;;;7.50;2.70;;;5.20;99.90;;;;;;5068466;28;20880;-73
2023/04/14 02:59:08;;;;;;;7.57;2.33;;;5.30;99.90;;;;;;5066946;28;20429;-72
2023/04/14 03:01:35;;;;;;;8.40;2.57;;;5.30;99.90;;;;;;5068348;28;20429;-73
2023/04/14 03:04:01;;;;;;;6.07;1.97;;;5.30;99.90;;;;;;5066745;28;20207;-73
2023/04/14 03:06:28;;;;;;;7.03;2.90;;;5.30;99.90;;;;;;5068423;28;20417;-73
2023/04/14 03:08:55;;;;;;;8.00;2.23;;;5.20;99.90;;;;;;5066470;28;20478;-73
2023/04/14 03:11:22;;;;;;;2.30;2.03;;;5.20;99.90;;;;;;5068225;28;21004;-73
2023/04/14 03:13:53;;;;;;;8.80;3.00;;;5.20;99.90;;;;;;5067993;28;20455;-73
2023/04/14 03:16:20;;;;;;;8.70;3.10;;;5.10;99.90;;;;;;5066564;28;20448;-72
2023/04/14 03:18:48;;;;;;;4.83;2.30;;;5.10;99.90;;;;;;5066665;28;20456;-73
2023/04/14 03:21:17;;;;;;;10.23;2.30;;;5.10;99.90;;;;;;5069051;28;20432;-73
2023/04/14 03:23:44;;;;;;;5.60;2.20;;;5.00;99.90;;;;;;5071745;28;20449;-72
2023/04/14 03:26:12;;;;;;;9.60;2.60;;;5.00;99.90;;;;;;5070264;28;21057;-73
2023/04/14 03:28:41;;;;;;;7.57;1.87;;;5.00;99.90;;;;;;5070422;28;20971;-74
2023/04/14 03:31:08;;;;;;;6.90;2.00;;;4.90;99.90;;;;;;5070687;28;20424;-72
2023/04/14 03:33:34;;;;;;;10.00;2.50;;;5.00;99.90;;;;;;5071569;28;20457;-72
2023/04/14 03:36:02;;;;;;;13.67;2.87;;;5.00;99.90;;;;;;5071562;28;20453;-72
2023/04/14 03:38:30;;;;;;;8.13;2.43;;;4.90;99.90;;;;;;5086991;28;20456;-74
2023/04/14 03:40:58;;;;;;;5.30;1.90;;;4.90;99.90;;;;;;5071252;28;20866;-73
2023/04/14 03:43:26;;;;;;;6.67;2.40;;;4.90;99.90;;;;;;5069881;28;20444;-74
2023/04/14 03:45:52;;;;;;;9.82;2.60;;;4.80;99.90;;;;;;5071152;28;20472;-73
2023/04/14 03:48:19;;;;;;;6.77;2.70;;;4.70;99.90;;;;;;5071315;28;20194;-73
2023/04/14 03:50:50;;;;;;;7.68;2.60;;;4.70;99.90;;;;;;5069703;28;20186;-73
2023/04/14 03:53:17;;;;;;;13.87;3.00;;;4.70;99.90;;;;;;5071198;28;20284;-73
2023/04/14 03:55:46;;;;;;;3.17;1.60;;;4.60;99.90;;;;;;5086640;28;20455;-73
2023/04/14 03:58:14;;;;;;;12.13;1.90;;;4.60;99.90;;;;;;5069873;28;20495;-73
2023/04/14 04:00:40;;;;;;;7.93;3.07;;;4.70;99.90;;;;;;5071242;28;20788;-73
2023/04/14 04:03:06;;;;;;;7.90;3.37;;;4.60;99.90;;;;;;5069506;28;20455;-71
2023/04/14 04:05:39;;;;;;;8.30;3.40;;;4.60;99.90;;;;;;5071144;28;20566;-73
2023/04/14 04:08:07;;;;;;;8.10;2.73;;;4.60;99.90;;;;;;5069683;28;20179;-73
2023/04/14 04:10:33;;;;;;;5.93;2.58;;;4.60;99.90;;;;;;5070877;28;20424;-73
2023/04/14 04:13:08;;;;;;;9.67;2.70;;;4.50;99.90;;;;;;5070790;28;20198;-73
2023/04/14 04:15:34;;;;;;;13.75;3.10;;;4.50;99.90;;;;;;5070824;28;20432;-73
2023/04/14 04:18:02;;;;;;;7.50;2.60;;;4.50;99.90;;;;;;5069336;28;20190;-73
2023/04/14 04:20:29;;;;;;;6.93;2.60;;;4.40;99.90;;;;;;5070759;28;20438;-72
2023/04/14 04:22:59;;;;;;;10.97;3.20;;;4.40;99.90;;;;;;5070804;28;20440;-72
2023/04/14 04:25:25;;;;;;;4.23;1.80;;;4.40;99.90;;;;;;5069657;28;20475;-72
2023/04/14 04:27:50;;;;;;;9.20;2.30;;;4.40;99.90;;;;;;5071205;28;20416;-73
2023/04/14 04:30:18;;;;;;;4.33;2.47;;;4.50;99.90;;;;;;5069968;28;20559;-73
2023/04/14 04:32:44;;;;;;;10.48;2.95;;;4.50;99.90;;;;;;5068885;28;20234;-73
2023/04/14 04:35:11;;;;;;;10.30;3.10;;;4.60;99.90;;;;;;5071469;28;20217;-72
2023/04/14 04:37:37;;;;;;;13.07;3.63;;;4.60;99.90;;;;;;5069896;28;20435;-71
2023/04/14 04:40:03;;;;;;;10.63;3.73;;;4.60;99.90;;;;;;5070956;28;20522;-71
2023/04/14 04:42:28;;;;;;;10.03;3.20;;;4.60;99.90;;;;;;5070819;28;20441;-71
2023/04/14 04:44:55;;;;;;;8.17;3.10;;;4.60;99.90;;;;;;5070868;28;20472;-71
2023/04/14 04:47:20;;;;;;;5.87;2.20;;;4.70;99.90;;;;;;5069186;28;20212;-72
2023/04/14 04:49:46;;;;;;;12.70;2.27;;;4.80;99.90;;;;;;5068780;28;20565;-72
2023/04/14 04:52:11;;;;;;;7.30;2.07;;;4.90;99.90;;;;;;5068449;28;20209;-72
2023/04/14 04:54:37;;;;;;;7.97;2.53;;;4.90;99.90;;;;;;5069877;28;20314;-72
2023/04/14 04:57:02;;;;;;;5.60;2.30;;;4.90;99.90;;;;;;5068640;28;20191;-71
2023/04/14 04:59:28;;;;;;;4.23;1.97;;;5.00;99.90;;;;;;5068565;28;20217;-72
2023/04/14 05:01:54;;;;;;;10.50;1.83;;;5.00;99.90;;;;;;5067552;28;20253;-71
2023/04/14 05:04:20;;;;;;;7.97;1.80;;;5.10;99.90;;;;;;5068544;28;20622;-72
2023/04/14 05:06:46;;;;;;;7.23;2.00;;;5.10;99.90;;;;;;5069007;28;20670;-71
2023/04/14 05:09:11;;;;;;;5.37;1.83;;;5.10;99.90;;;;;;5067454;28;20466;-71
2023/04/14 05:11:37;;;;;;;13.13;2.10;;;5.20;99.90;;;;;;5067190;28;20819;-71
2023/04/14 05:14:03;;;;;;;8.23;1.90;;;5.10;99.90;;;;;;5068691;28;20249;-71
2023/04/14 05:16:28;;;;;;;19.27;2.50;;;5.10;99.90;;;;;;5068696;28;20662;-72
2023/04/14 05:18:54;;;;;;;6.13;1.67;;;5.10;99.90;;;;;;5067527;28;20567;-72
2023/04/14 05:21:20;;;;;;;5.10;1.70;;;5.10;99.90;;;;;;5068952;28;20189;-72
2023/04/14 05:23:46;;;;;;;11.60;2.10;;;5.00;99.90;;;;;;5068453;28;20440;-72
2023/04/14 05:26:13;;;;;;;7.40;1.87;;;5.00;99.90;;;;;;5068490;28;20211;-71
2023/04/14 05:28:40;;;;;;;10.10;2.57;;;5.00;99.90;;;;;;5068406;28;20463;-72
2023/04/14 05:31:06;;;;;;;10.50;3.53;;;5.00;99.90;;;;;;5066777;28;20962;-71
2023/04/14 05:33:33;;;;;;;6.10;1.53;;;5.10;99.90;;;;;;5068422;28;20940;-72
2023/04/14 05:35:59;;;;;;;11.77;2.03;;;5.30;99.90;;;;;;5068211;28;20504;-72
2023/04/14 05:38:25;;;;;;;11.60;3.40;;;5.40;99.90;;;;;;5066618;28;20527;-71
2023/04/14 05:40:51;;;;;;;9.60;3.00;;;5.60;99.90;;;;;;5066090;28;20448;-71
2023/04/14 05:43:17;;;;;;;7.90;2.60;;;5.70;99.90;;;;;;5067718;28;20912;-72
2023/04/14 05:45:45;;;;;;;7.50;2.70;;;5.90;99.90;;;;;;5067170;28;20237;-71
2023/04/14 05:48:11;;;;;;;8.17;2.00;;;6.00;99.90;;;;;;5065879;28;20226;-72
2023/04/14 05:50:37;;;;;;;8.13;2.20;;;6.10;99.90;;;;;;5065897;28;20875;-72
2023/04/14 05:53:02;;;;;;;4.23;1.83;;;6.20;99.90;;;;;;5067522;28;20441;-72
2023/04/14 05:55:28;;;;;;;4.30;1.73;;;6.30;99.90;;;;;;5066393;28;20191;-72
2023/04/14 05:57:54;;;;;;;5.33;2.03;;;6.40;99.90;;;;;;5068029;28;20263;-72
2023/04/14 06:00:22;;;;;;;6.73;2.13;;;6.50;99.90;;;;;;5067179;28;20215;-71
2023/04/14 06:02:47;;;;;;;9.30;1.83;;;6.60;99.90;;;;;;5050161;28;20219;-72
2023/04/14 06:05:13;;;;;;;8.13;2.43;;;6.70;99.90;;;;;;5068270;28;20548;-73
2023/04/14 06:07:40;;;;;;;9.83;2.60;;;6.90;99.90;;;;;;5067954;28;20179;-72
2023/04/14 06:10:07;;;;;;;5.70;1.70;;;7.00;99.90;;;;;;5066291;28;20211;-72
2023/04/14 06:12:32;;;;;;;9.70;2.23;;;7.00;99.90;;;;;;5083080;28;20457;-72
2023/04/14 06:14:58;;;;;;;6.40;2.03;;;7.00;99.90;;;;;;5068043;28;20422;-72
2023/04/14 06:17:24;;;;;;;13.73;3.37;;;6.90;99.90;;;;;;5068277;28;20637;-72
2023/04/14 06:19:49;;;;;;;8.43;2.50;;;6.90;99.90;;;;;;5068243;28;20425;-72
2023/04/14 06:22:18;;;;;;;16.83;2.60;;;6.90;99.90;;;;;;5067786;28;20214;-72
2023/04/14 06:24:44;;;;;;;7.40;2.20;;;6.80;99.90;;;;;;5066755;28;20210;-70
2023/04/14 06:27:10;;;;;;;4.67;2.00;;;7.00;99.90;;;;;;5067734;28;20978;-71
2023/04/14 06:29:36;;;;;;;11.07;1.60;;;7.20;99.90;;;;;;5067780;28;20421;-71
2023/04/14 06:32:01;;;;;;;5.70;1.80;;;7.30;99.90;;;;;;5067503;28;20191;-71
2023/04/14 06:34:27;;;;;;;13.80;2.30;;;7.30;99.90;;;;;;5065945;28;20308;-71
2023/04/14 06:36:52;;;;;;;6.93;1.63;;;7.40;99.90;;;;;;5067200;28;20205;-71
2023/04/14 06:39:20;;;;;;;6.57;1.90;;;7.60;99.90;;;;;;5066134;28;20961;-71
2023/04/14 06:41:46;;;;;;;6.27;1.53;;;7.80;99.90;;;;;;5066461;28;20605;-71
2023/04/14 06:44:12;;;;;;;8.53;1.73;;;8.20;99.90;;;;;;5067619;28;20437;-71
2023/04/14 06:46:38;;;;;;;1.10;1.00;;;8.80;99.90;;;;;;5067543;28;20553;-71
2023/04/14 06:49:04;;;;;;;4.87;1.40;;;9.10;99.90;;;;;;5067522;28;20180;-72
2023/04/14 06:51:31;;;;;;;9.03;2.00;;;9.40;99.90;;;;;;5067550;28;20417;-71
2023/04/14 06:53:57;;;;;;;4.17;1.30;;;9.60;99.90;;;;;;5067512;28;20198;-71
2023/04/14 06:56:22;;;;;;;3.33;1.43;;;9.80;99.40;;;;;;5070200;28;20529;-72
2023/04/14 06:58:48;;;;;;;6.03;1.60;;;9.90;99.70;;;;;;5071704;28;20238;-72
2023/04/14 07:01:13;;;;;;;5.03;1.10;;;10.00;99.30;;;;;;5071467;28;20191;-71
2023/04/14 07:03:39;;;;;;;3.73;1.60;;;10.10;99.00;;;;;;5069553;28;20219;-72
2023/04/14 07:06:07;;;;;;;5.63;2.30;;;9.90;97.50;;;;;;5070717;28;20320;-72
2023/04/14 07:08:33;;;;;;;5.87;1.67;;;10.00;98.70;;;;;;5070997;28;20186;-71
2023/04/14 07:11:07;;;;;;;5.20;1.30;;;9.90;96.60;;;;;;5086535;28;21074;-71
2023/04/14 07:13:34;;;;;;;6.30;1.40;;;9.70;97.80;;;;;;5070904;28;20440;-71
2023/04/14 07:16:01;;;;;;;4.93;1.57;;;9.60;97.30;;;;;;5086087;28;20444;-72
2023/04/14 07:18:26;;;;;;;5.53;1.50;;;9.50;99.90;;;;;;5069434;28;20551;-72
2023/04/14 07:20:53;;;;;;;3.93;1.30;;;9.70;99.90;;;;;;5070688;28;20460;-72
2023/04/14 07:23:19;;;;;;;3.40;1.13;;;9.90;99.20;;;;;;5070653;28;20206;-71
2023/04/14 07:25:58;;;;;;;6.80;1.73;;;10.20;98.50;;;;;;5070370;28;20501;-71
2023/04/14 07:28:25;;;;;;;5.10;2.00;;;10.20;97.00;;;;;;5070763;28;20903;-72
2023/04/14 07:30:51;;;;;;;4.87;1.57;;;10.20;97.90;;;;;;5070471;28;20428;-72
2023/04/14 07:33:18;;;;;;;14.80;2.40;;;10.40;96.70;;;;;;5068908;28;20441;-72
2023/04/14 07:35:45;;;;;;;11.40;2.33;;;10.20;96.90;;;;;;5068983;28;20422;-72
2023/04/14 07:38:10;;;;;;;11.80;1.90;;;10.20;96.00;;;;;;5069210;28;20946;-72
2023/04/14 07:40:36;;;;;;;7.60;1.93;;;10.60;96.80;;;;;;5070060;28;20455;-72
2023/04/14 07:43:02;;;;;;;4.60;1.53;;;11.00;95.90;;;;;;5070243;28;20651;-71
2023/04/14 07:45:27;;;;;;;13.77;2.00;;;10.90;94.10;;;;;;5068483;28;20226;-72
2023/04/14 07:47:53;;;;;;;9.37;2.20;;;10.90;93.50;;;;;;5070302;28;20280;-71
2023/04/14 07:50:19;;;;;;;5.30;1.63;;;11.00;95.00;;;;;;5070172;28;20218;-72
2023/04/14 07:52:45;;;;;;;4.37;1.77;;;11.00;93.20;;;;;;5085512;28;20211;-72
2023/04/14 07:55:10;;;;;;;11.50;1.70;;;11.10;93.70;;;;;;5070046;28;20422;-72
2023/04/14 07:57:36;;;;;;;7.70;1.90;;;11.10;91.90;;;;;;5070435;28;20954;-72
2023/04/14 08:00:03;;;;;;;3.63;1.40;;;11.40;94.30;;;;;;5069997;28;20194;-72
2023/04/14 08:02:29;;;;;;;3.10;1.50;;;11.50;92.70;;;;;;5068185;28;20324;-72
2023/04/14 08:04:54;;;;;;;5.97;1.77;;;11.70;93.00;;;;;;5068200;28;20475;-72
2023/04/14 08:07:20;;;;;;;6.50;1.87;;;11.60;92.60;;;;;;5069723;28;20978;-72
2023/04/14 08:09:48;;;;;;;3.53;1.30;;;11.70;93.30;;;;;;5069728;28;20703;-71
2023/04/14 08:12:13;;;;;;;7.80;1.90;;;11.60;91.70;;;;;;5069619;28;20717;-72
2023/04/14 08:14:39;;;;;;;11.37;1.43;;;11.60;92.40;;;;;;5069628;28;20545;-72
2023/04/14 08:17:05;;;;;;;4.03;1.77;;;11.80;92.30;;;;;;5069753;28;20697;-71
2023/04/14 08:19:32;;;;;;;2.27;1.10;;;12.10;92.60;;;;;;5069460;28;20195;-71
2023/04/14 08:21:58;;;;;;;6.83;2.10;;;12.30;92.30;;;;;;5069580;28;20190;-71
2023/04/14 08:24:24;;;;;;;5.23;2.10;;;12.30;92.80;;;;;;5069443;28;20463;-72
2023/04/14 08:26:49;;;;;;;7.47;2.63;;;12.30;92.10;;;;;;5069374;28;20184;-72
2023/04/14 08:29:15;;;;;;;5.47;1.33;;;12.40;91.80;;;;;;5069498;28;20242;-72
2023/04/14 08:31:41;;;;;;;6.50;1.50;;;12.40;90.70;;;;;;5069358;28;20475;-72
2023/04/14 08:34:06;;;;;;;4.40;1.87;;;12.50;90.40;;;;;;5069213;28;20214;-72
2023/04/14 08:36:32;;;;;;;8.33;2.10;;;12.80;90.10;;;;;;5069629;28;20302;-72
2023/04/14 08:38:59;;;;;;;7.80;1.70;;;12.60;88.10;;;;;;5069227;28;20176;-72
2023/04/14 08:41:25;;;;;;;8.63;1.57;;;12.90;90.30;;;;;;5069596;28;20202;-72
2023/04/14 08:43:51;;;;;;;6.03;2.13;;;12.90;89.20;;;;;;5069260;28;20926;-72
2023/04/14 08:46:18;;;;;;;3.23;1.47;;;13.00;90.00;;;;;;5084252;28;20471;-71
2023/04/14 08:48:46;;;;;;;4.80;1.30;;;13.10;90.00;;;;;;5069097;28;20649;-71
2023/04/14 08:51:27;;;;;;;6.80;1.80;;;13.30;90.70;;;;;;5067660;28;20486;-71
2023/04/14 08:53:55;;;;;;;5.70;1.57;;;13.40;87.90;;;;;;5069002;28;20523;-72
2023/04/14 08:56:23;;;;;;;5.33;2.07;;;13.70;86.00;;;;;;5069225;28;20422;-72
2023/04/14 08:58:49;;;;;;;5.00;1.73;;;13.40;83.20;;;;;;5084246;28;20436;-72
2023/04/14 09:01:15;;;;;;;5.93;1.87;;;13.80;87.30;;;;;;5068992;28;20418;-71
2023/04/14 09:03:42;;;;;;;6.93;2.50;;;14.00;83.00;;;;;;5069078;28;20448;-71
2023/04/14 09:06:08;;;;;;;6.00;1.67;;;14.40;85.90;;;;;;5069178;28;20637;-72
2023/04/14 09:08:34;;;;;;;2.73;1.70;;;14.60;84.50;;;;;;5067907;28;20507;-72
2023/04/14 09:11:01;;;;;;;12.67;2.60;;;14.60;80.80;;;;;;5069058;28;20180;-72
2023/04/14 09:13:28;;;;;;;3.07;1.60;;;15.00;81.60;;;;;;5068823;28;20808;-71
2023/04/14 09:15:54;;;;;;;6.40;2.20;;;15.20;79.20;;;;;;5068916;28;20966;-71
2023/04/14 09:18:21;;;;;;;9.37;2.40;;;15.50;77.70;;;;;;5069201;28;20842;-72
2023/04/14 09:20:47;;;;;;;3.60;1.83;;;15.50;76.40;;;;;;5069405;28;20409;-72
2023/04/14 09:23:13;;;;;;;6.53;1.87;;;16.00;78.80;;;;;;5069560;28;20949;-71
2023/04/14 09:25:39;;;;;;;6.70;2.37;;;16.10;78.10;;;;;;5069676;28;20498;-72
2023/04/14 09:28:05;;;;;;;8.87;2.40;;;16.50;74.90;;;;;;5069658;28;20923;-72
2023/04/14 09:30:32;;;;;;;8.63;2.33;;;16.90;74.60;;;;;;5069511;28;20516;-72
2023/04/14 09:32:57;;;;;;;7.60;1.80;;;17.10;72.70;;;;;;5069221;28;20473;-72
2023/04/14 09:35:47;;;;;;;3.53;1.37;;;17.20;68.60;;;;;;5069147;28;20461;-72
2023/04/14 09:38:13;;;;;;;7.30;2.00;;;17.70;70.70;;;;;;5069109;28;20183;-72
2023/04/14 09:40:42;;;;;;;3.23;1.50;;;17.60;66.30;;;;;;5068849;28;20445;-71
2023/04/14 09:43:21;;;;;;;5.50;2.10;;;17.90;67.80;;;;;;5050684;28;20504;-71
2023/04/14 09:45:47;;;;;;;11.83;2.17;;;18.30;64.70;;;;;;5068765;28;20561;-71
2023/04/14 09:48:13;;;;;;;6.70;1.53;;;18.40;66.50;;;;;;5068724;28;20417;-71
2023/04/14 09:51:05;;;;;;;7.60;1.70;;;18.40;66.60;;;;;;5068431;28;20423;-72
2023/04/14 09:53:36;;;;;;;12.80;1.90;;;18.50;65.40;;;;;;5068330;28;20427;-72
2023/04/14 09:56:06;;;;;;;5.73;2.00;;;18.10;60.40;;;;;;5068475;28;20621;-71
2023/04/14 09:58:40;;;;;;;9.00;2.10;;;18.20;60.30;;;;;;5068528;28;20424;-71
2023/04/14 10:01:16;;;;;;;9.60;2.00;;;18.50;65.60;;;;;;5067203;28;20418;-71
2023/04/14 10:03:44;;;;;;;5.10;2.20;;;18.70;62.40;;;;;;5068353;28;20469;-71
2023/04/14 10:06:21;;;;;;;6.37;1.97;;;18.90;60.50;;;;;;5066950;28;20466;-70
2023/04/14 10:08:48;;;;;;;5.33;2.53;;;19.10;63.30;;;;;;5068446;28;20400;-71
2023/04/14 10:11:17;;;;;;;9.87;2.27;;;18.70;59.60;;;;;;5068071;28;20418;-71
2023/04/14 10:13:52;;;;;;;11.80;2.30;;;18.20;62.60;;;;;;5066192;28;20811;-71
2023/04/14 10:16:18;;;;;;;12.57;2.43;;;17.30;61.00;;;;;;5068884;28;20438;-72
2023/04/14 10:18:43;;;;;;;6.10;1.93;;;16.40;63.20;;;;;;5068205;28;20418;-71
2023/04/14 10:21:10;;;;;;;8.43;1.87;;;15.70;66.10;;;;;;5083157;28;20188;-71
2023/04/14 10:23:38;;;;;;;10.57;2.90;;;15.00;66.20;;;;;;5082870;28;20504;-71
2023/04/14 10:26:05;;;;;;;6.93;1.80;;;15.40;67.70;;;;;;5067433;28;20812;-71
2023/04/14 10:28:32;;;;;;;13.17;2.30;;;16.40;68.90;;;;;;5067249;28;20480;-70
2023/04/14 10:31:00;;;;;;;7.20;1.60;;;17.50;67.30;;;;;;5067391;28;20426;-70
2023/04/14 10:33:26;;;;;;;4.13;1.67;;;18.10;63.10;;;;;;5067254;28;20446;-70
2023/04/14 10:36:00;;;;;;;5.40;1.27;;;18.80;61.70;;;;;;5067441;28;20438;-71
2023/04/14 10:38:42;;;;;;;5.80;1.97;;;18.90;61.30;;;;;;5082391;28;20879;-70
2023/04/14 10:41:09;;;;;;;5.93;2.13;;;19.10;61.10;;;;;;5049941;28;20450;-71
2023/04/14 10:43:36;;;;;;;5.67;1.33;;;19.50;58.10;;;;;;5067147;28;20559;-70
2023/04/14 10:46:03;;;;;;;6.47;2.10;;;19.80;57.30;;;;;;5067202;28;20470;-70
2023/04/14 10:48:33;;;;;;;7.80;2.77;;;20.10;58.50;;;;;;5067465;28;20425;-70
2023/04/14 10:51:05;;;;;;;4.03;1.70;;;19.90;57.00;;;;;;5067188;28;20443;-71
2023/04/14 10:53:44;;;;;;;6.23;1.40;;;18.80;56.20;;;;;;5067257;28;20501;-71
2023/04/14 10:56:10;;;;;;;11.63;2.03;;;18.20;54.70;;;;;;5067467;28;20437;-70
2023/04/14 10:58:36;;;;;;;7.17;1.90;;;17.50;55.70;;;;;;5067171;28;20418;-71
2023/04/14 11:01:29;;;;;;;6.20;1.53;;;18.00;56.40;;;;;;5066141;28;21301;-71
2023/04/14 11:03:55;;;;;;;6.50;1.97;;;18.40;56.00;;;;;;5067530;28;20449;-70
2023/04/14 11:06:46;;;;;;;5.80;1.90;;;19.10;55.90;;;;;;5067500;28;20486;-71
2023/04/14 11:09:22;;;;;;;6.10;1.60;;;19.80;52.80;;;;;;5067968;28;20182;-71
2023/04/14 11:11:48;;;;;;;6.63;1.93;;;19.80;51.20;;;;;;5067754;28;20501;-70
2023/04/14 11:14:14;;;;;;;3.10;1.20;;;19.10;51.20;;;;;;5067979;28;20517;-71
2023/04/14 11:16:43;;;;;;;11.23;1.80;;;19.60;55.70;;;;;;5068020;28;20756;-70
2023/04/14 11:19:15;;;;;;;5.70;1.60;;;18.90;51.80;;;;;;5066721;28;20422;-70
2023/04/14 11:21:52;;;;;;;4.57;1.70;;;17.90;52.30;;;;;;5067949;28;20412;-71
2023/04/14 11:24:21;;;;;;;4.67;1.67;;;17.20;51.80;;;;;;5068135;28;20458;-70
2023/04/14 11:26:49;;;;;;;4.60;1.80;;;16.50;54.20;;;;;;5068221;28;20931;-71
2023/04/14 11:29:15;;;;;;;3.90;1.60;;;15.90;54.70;;;;;;5068205;28;20502;-71
2023/04/14 11:31:41;;;;;;;5.57;1.90;;;15.50;54.60;;;;;;5067938;28;20854;-72
2023/04/14 11:34:06;;;;;;;3.33;1.53;;;15.30;55.30;;;;;;5066361;28;20706;-70
2023/04/14 11:36:35;;;;;;;4.57;1.73;;;15.10;55.20;;;;;;5067893;28;20189;-71
2023/04/14 11:39:02;;;;;;;6.87;1.80;;;15.10;59.60;;;;;;5068904;28;20180;-72
2023/04/14 11:41:29;;;;;;;1.80;1.20;;;15.50;57.00;;;;;;5068659;28;20441;-71
2023/04/14 11:43:54;;;;;;;3.13;1.13;;;16.90;57.50;;;;;;5071049;28;20453;-70
2023/04/14 11:46:23;;;;;;;2.43;1.50;;;17.80;56.70;;;;;;5070996;28;20906;-70
2023/04/14 11:48:56;;;;;;;4.80;1.70;;;18.90;60.70;;;;;;5071852;28;20177;-72
2023/04/14 11:51:31;;;;;;;5.23;1.40;;;19.00;52.00;;;;;;5071294;28;20444;-71
2023/04/14 11:53:58;;;;;;;4.33;1.53;;;19.40;51.70;;;;;;5070969;28;20437;-71
2023/04/14 11:56:24;;;;;;;3.87;1.30;;;19.70;51.90;;;;;;5070355;28;20431;-71
2023/04/14 11:58:51;;;;;;;7.80;1.80;;;20.30;54.60;;;;;;5069129;28;20508;-71
2023/04/14 12:01:22;;;;;;;8.67;1.80;;;20.10;53.10;;;;;;5070350;28;20181;-70
2023/04/14 12:03:48;;;;;;;10.87;2.63;;;19.10;50.90;;;;;;5070555;28;20478;-71
2023/04/14 12:06:14;;;;;;;7.67;2.23;;;18.40;52.70;;;;;;5070285;28;21055;-70
2023/04/14 12:08:40;;;;;;;4.60;1.80;;;17.60;52.80;;;;;;5070337;28;21228;-71
2023/04/14 12:11:13;;;;;;;5.60;1.67;;;17.20;54.80;;;;;;5070442;28;20185;-70
2023/04/14 12:13:40;;;;;;;6.03;1.70;;;16.70;53.00;;;;;;5068844;28;20201;-71
2023/04/14 12:16:06;;;;;;;6.70;1.83;;;16.30;53.30;;;;;;5068998;28;20514;-72
2023/04/14 12:18:32;;;;;;;7.37;2.10;;;16.50;54.00;;;;;;5070475;28;20535;-72
2023/04/14 12:21:01;;;;;;;4.20;1.30;;;16.80;54.40;;;;;;5069409;28;20989;-71
2023/04/14 12:23:27;;;;;;;4.73;1.87;;;16.40;55.70;;;;;;5071445;28;20216;-72
2023/04/14 12:25:52;;;;;;;5.53;2.10;;;15.80;53.00;;;;;;5070196;28;20454;-72
2023/04/14 12:28:23;;;;;;;9.57;2.17;;;15.60;55.90;;;;;;5070704;28;20422;-72
2023/04/14 12:30:51;;;;;;;6.97;2.10;;;15.40;58.10;;;;;;5069034;28;20251;-71
2023/04/14 12:33:17;;;;;;;3.73;2.00;;;15.30;58.10;;;;;;5070039;28;20854;-71
2023/04/14 12:35:43;;;;;;;3.83;1.50;;;14.80;56.60;;;;;;5070317;28;20541;-71
2023/04/14 12:38:13;;;;;;;4.03;1.67;;;14.70;58.30;;;;;;5070120;28;20413;-71
2023/04/14 12:40:44;;;;;;;4.13;2.10;;;14.70;57.10;;;;;;5069910;28;20445;-71
2023/04/14 12:43:11;;;;;;;9.93;2.37;;;15.20;56.50;;;;;;5068636;28;20499;-72
2023/04/14 12:45:47;;;;;;;2.93;1.20;;;15.90;56.30;;;;;;5070134;28;20462;-71
2023/04/14 12:48:15;;;;;;;3.67;1.47;;;16.40;54.40;;;;;;5070227;28;20421;-71
2023/04/14 12:50:41;;;;;;;4.50;1.83;;;16.10;53.00;;;;;;5070100;28;20426;-72
2023/04/14 12:53:27;;;;;;;5.27;2.10;;;15.60;52.10;;;;;;5069824;28;20932;-72
2023/04/14 12:56:28;;;;;;;7.87;2.03;;;15.30;54.90;;;;;;5069564;28;21210;-73